Time,TemperatureF,DewpointF,PressureIn,WindDirection,WindDirectionDegrees,WindSpeedMPH,WindSpeedGustMPH,Humidity,HourlyPrecipIn,Conditions,Clouds,dailyrainin,SoftwareType,DateUTC
2013-01-08 06:19:00,47.7,34.5,29.47,ESE,123,0.0,0.0,60,0.00,,---,0.00,VWS V13.01,2013-01-08 12:19:00,
2013-01-08 06:24:00,47.7,34.5,29.47,NE,52,5.4,5.4,60,0.00,,---,0.00,VWS V13.01,2013-01-08 12:24:00,
2013-01-08 06:29:00,47.7,34.5,29.47,NE,51,0.0,2.2,60,0.00,,---,0.00,VWS V13.01,2013-01-08 12:29:00,
2013-01-08 06:34:00,47.7,34.5,29.47,East,95,2.7,3.1,60,0.00,,---,0.00,VWS V13.01,2013-01-08 12:34:00,
2013-01-08 06:39:00,47.7,34.5,29.47,East,84,2.2,3.6,60,0.00,,---,0.00,VWS V13.01,2013-01-08 12:39:00,
2013-01-08 06:44:00,47.7,34.5,29.47,ENE,68,5.4,5.4,60,0.00,,---,0.00,VWS V13.01,2013-01-08 12:44:00,
2013-01-08 06:49:00,47.7,34.5,29.47,ENE,60,3.1,3.1,60,0.00,,---,0.00,VWS V13.01,2013-01-08 12:49:00,
2013-01-08 06:54:00,47.7,34.5,29.47,ENE,63,3.6,3.6,60,0.00,,---,0.00,VWS V13.01,2013-01-08 12:54:00,
2013-01-08 06:59:00,47.5,34.3,29.47,NE,46,4.9,4.9,60,0.00,,---,0.00,VWS V13.01,2013-01-08 12:59:00,
2013-01-08 07:04:00,47.5,34.7,29.47,ENE,67,3.1,3.1,61,0.00,,---,0.00,VWS V13.01,2013-01-08 13:04:00,
2013-01-08 07:09:00,47.5,34.7,29.47,NE,34,2.7,3.1,61,0.00,,---,0.00,VWS V13.01,2013-01-08 13:09:00,
2013-01-08 07:14:00,47.5,34.7,29.47,NE,55,3.1,3.1,61,0.00,,---,0.00,VWS V13.01,2013-01-08 13:14:00,
2013-01-08 07:19:00,47.5,34.7,29.47,ENE,70,0.0,0.0,61,0.00,,---,0.00,VWS V13.01,2013-01-08 13:19:00,
2013-01-08 07:24:00,47.7,34.5,29.47,NNE,30,3.1,3.6,60,0.00,,---,0.00,VWS V13.01,2013-01-08 13:24:00,
2013-01-08 07:29:00,47.7,34.9,29.47,NE,49,0.0,2.7,61,0.00,,---,0.00,VWS V13.01,2013-01-08 13:29:00,
2013-01-08 07:34:00,47.7,34.9,29.47,NE,44,3.1,3.1,61,0.00,,---,0.00,VWS V13.01,2013-01-08 13:34:00,
2013-01-08 07:39:00,47.8,35.5,29.47,ENE,61,3.1,5.8,62,0.00,,---,0.00,VWS V13.01,2013-01-08 13:39:00,
2013-01-08 07:44:00,47.8,35.5,29.47,ENE,59,2.7,2.7,62,0.00,,---,0.00,VWS V13.01,2013-01-08 13:44:00,
2013-01-08 07:49:00,47.8,35.1,29.47,NE,45,2.2,3.1,61,0.00,,---,0.00,VWS V13.01,2013-01-08 13:49:00,
2013-01-08 07:54:00,48.0,35.6,29.50,NE,52,4.0,4.0,62,0.00,,---,0.00,VWS V13.01,2013-01-08 13:54:00,
2013-01-08 07:59:00,48.0,35.2,29.50,ENE,59,5.8,6.3,61,0.00,,---,0.00,VWS V13.01,2013-01-08 13:59:00,
2013-01-08 08:04:00,48.0,35.6,29.50,NE,44,2.7,3.1,62,0.00,,---,0.00,VWS V13.01,2013-01-08 14:04:00,
2013-01-08 08:09:00,48.0,35.6,29.50,NNE,31,4.0,4.0,62,0.00,,---,0.00,VWS V13.01,2013-01-08 14:09:00,
2013-01-08 08:14:00,48.0,36.0,29.50,ENE,62,2.7,2.7,63,0.00,,---,0.00,VWS V13.01,2013-01-08 14:14:00,
2013-01-08 08:19:00,48.0,36.8,29.50,NNE,30,3.6,3.6,65,0.00,,---,0.00,VWS V13.01,2013-01-08 14:19:00,
2013-01-08 08:24:00,48.0,36.4,29.47,NE,52,4.0,4.0,64,0.00,,---,0.00,VWS V13.01,2013-01-08 14:24:00,
2013-01-08 08:29:00,47.8,36.7,29.47,East,93,4.0,5.8,65,0.00,,---,0.00,VWS V13.01,2013-01-08 14:29:00,
2013-01-08 08:34:00,47.8,36.3,29.47,ENE,75,5.8,5.8,64,0.00,,---,0.00,VWS V13.01,2013-01-08 14:34:00,
2013-01-08 08:39:00,47.8,36.3,29.50,ENE,73,2.7,2.7,64,0.00,,---,0.00,VWS V13.01,2013-01-08 14:39:00,
2013-01-08 08:44:00,47.8,37.4,29.50,East,100,5.8,5.8,67,0.00,,---,0.00,VWS V13.01,2013-01-08 14:44:00,
2013-01-08 08:49:00,47.7,38.4,29.50,East,80,3.1,3.1,70,0.00,,---,0.00,VWS V13.01,2013-01-08 14:49:00,
2013-01-08 08:54:00,47.7,39.1,29.50,ENE,62,3.6,3.6,72,0.00,,---,0.00,VWS V13.01,2013-01-08 14:54:00,
2013-01-08 08:59:00,47.5,39.6,29.50,ENE,78,3.6,3.6,74,0.00,,---,0.00,VWS V13.01,2013-01-08 14:59:00,
2013-01-08 09:04:00,47.5,39.6,29.50,ENE,63,0.0,0.0,74,0.00,,---,0.00,VWS V13.01,2013-01-08 15:04:00,
2013-01-08 09:09:00,47.5,39.6,29.50,NE,50,2.7,3.6,74,0.00,,---,0.00,VWS V13.01,2013-01-08 15:09:00,
2013-01-08 09:14:00,47.5,40.0,29.50,NE,42,3.6,4.0,75,0.00,,---,0.00,VWS V13.01,2013-01-08 15:14:00,
2013-01-08 09:19:00,47.7,40.1,29.50,NE,34,4.0,4.0,75,0.00,,---,0.00,VWS V13.01,2013-01-08 15:19:00,
2013-01-08 10:23:00,47.5,42.3,29.50,North,6,2.7,2.7,82,0.00,,---,0.00,VWS V13.01,2013-01-08 16:23:00,
2013-01-08 10:28:00,47.5,42.9,29.50,North,6,2.2,2.2,84,0.00,,---,0.00,VWS V13.01,2013-01-08 16:28:00,
2013-01-08 10:33:00,47.3,43.0,29.50,NNE,16,3.1,4.0,85,0.00,,---,0.00,VWS V13.01,2013-01-08 16:33:00,
2013-01-08 10:38:00,47.3,43.3,29.50,NNE,25,2.7,2.7,86,0.00,,---,0.00,VWS V13.01,2013-01-08 16:38:00,
2013-01-08 10:43:00,47.3,43.3,29.50,NNE,23,3.6,3.6,86,0.00,,---,0.00,VWS V13.01,2013-01-08 16:43:00,
2013-01-08 10:48:00,47.1,43.5,29.50,SSE,162,5.8,5.8,87,0.00,,---,0.00,VWS V13.01,2013-01-08 16:48:00,
2013-01-08 10:53:00,47.3,43.9,29.47,NNE,16,5.4,5.4,88,0.00,,---,0.00,VWS V13.01,2013-01-08 16:53:00,
2013-01-08 10:58:00,47.1,43.8,29.47,NNE,20,5.8,5.8,88,0.00,,---,0.00,VWS V13.01,2013-01-08 16:58:00,
2013-01-08 11:03:00,46.9,43.6,29.47,North,0,5.8,5.8,88,0.00,,---,0.00,VWS V13.01,2013-01-08 17:03:00,
2013-01-08 11:08:00,46.9,43.9,29.47,NNE,14,3.6,3.6,89,0.00,,---,0.00,VWS V13.01,2013-01-08 17:08:00,
2013-01-08 11:13:00,46.9,44.2,29.47,NE,56,7.2,7.2,90,0.00,,---,0.00,VWS V13.01,2013-01-08 17:13:00,
2013-01-08 11:18:00,46.9,44.5,29.47,ENE,64,8.3,8.3,91,0.04,,---,0.04,VWS V13.01,2013-01-08 17:18:00,
2013-01-08 11:23:00,46.9,44.5,29.47,ENE,61,2.7,4.0,91,0.04,,---,0.04,VWS V13.01,2013-01-08 17:23:00,
2013-01-08 11:28:00,46.9,44.7,29.47,ENE,58,5.4,5.4,92,0.04,,---,0.04,VWS V13.01,2013-01-08 17:28:00,
2013-01-08 11:33:00,46.9,44.7,29.47,NNE,17,5.8,5.8,92,0.04,,---,0.04,VWS V13.01,2013-01-08 17:33:00,
2013-01-08 11:38:00,46.9,45.0,29.47,NNE,13,4.9,4.9,93,0.04,,---,0.04,VWS V13.01,2013-01-08 17:38:00,
2013-01-08 11:43:00,47.1,45.2,29.47,NNE,21,2.7,5.8,93,0.04,,---,0.04,VWS V13.01,2013-01-08 17:43:00,
2013-01-08 11:48:00,47.3,45.4,29.47,NNW,341,5.4,5.4,93,0.04,,---,0.04,VWS V13.01,2013-01-08 17:48:00,
2013-01-08 11:53:00,47.3,45.7,29.44,NNE,28,0.0,4.0,94,0.04,,---,0.04,VWS V13.01,2013-01-08 17:53:00,
2013-01-08 11:58:00,47.3,45.7,29.44,NE,34,4.0,4.0,94,0.04,,---,0.04,VWS V13.01,2013-01-08 17:58:00,
2013-01-08 12:03:00,47.5,45.8,29.44,NE,53,3.1,3.1,94,0.04,,---,0.04,VWS V13.01,2013-01-08 18:03:00,
2013-01-08 12:08:00,47.7,46.0,29.44,NE,35,3.6,3.6,94,0.08,,---,0.08,VWS V13.01,2013-01-08 18:08:00,
2013-01-08 12:13:00,47.7,46.0,29.44,NE,48,4.0,6.3,94,0.08,,---,0.08,VWS V13.01,2013-01-08 18:13:00,
2013-01-08 12:18:00,47.7,46.3,29.44,NE,54,6.7,6.7,95,0.04,,---,0.08,VWS V13.01,2013-01-08 18:18:00,
2013-01-08 12:23:00,47.7,46.3,29.41,NE,41,4.9,5.8,95,0.04,,---,0.08,VWS V13.01,2013-01-08 18:23:00,
2013-01-08 12:28:00,48.0,46.7,29.41,North,357,4.0,4.0,95,0.04,,---,0.08,VWS V13.01,2013-01-08 18:28:00,
2013-01-08 12:33:00,48.0,46.9,29.41,NNE,14,4.9,7.6,96,0.04,,---,0.08,VWS V13.01,2013-01-08 18:33:00,
2013-01-08 12:38:00,47.8,46.8,29.41,NE,50,5.4,5.8,96,0.04,,---,0.08,VWS V13.01,2013-01-08 18:38:00,
2013-01-08 12:43:00,47.8,46.8,29.41,NNE,19,8.1,8.1,96,0.04,,---,0.08,VWS V13.01,2013-01-08 18:43:00,
2013-01-08 12:48:00,47.8,46.8,29.41,ENE,65,3.6,3.6,96,0.04,,---,0.08,VWS V13.01,2013-01-08 18:48:00,
2013-01-08 12:53:00,47.8,46.8,29.41,NNE,24,3.6,3.6,96,0.04,,---,0.08,VWS V13.01,2013-01-08 18:53:00,
2013-01-08 12:58:00,47.8,46.8,29.41,NE,50,6.3,6.3,96,0.08,,---,0.12,VWS V13.01,2013-01-08 18:58:00,
2013-01-08 13:03:00,47.7,46.6,29.41,NE,49,0.0,0.0,96,0.08,,---,0.12,VWS V13.01,2013-01-08 19:03:00,
2013-01-08 13:08:00,47.8,46.8,29.41,NE,37,0.0,0.0,96,0.04,,---,0.12,VWS V13.01,2013-01-08 19:08:00,
2013-01-08 13:13:00,47.8,46.8,29.41,NE,43,0.0,0.0,96,0.04,,---,0.12,VWS V13.01,2013-01-08 19:13:00,
2013-01-08 13:18:00,48.0,46.9,29.41,NE,42,2.7,5.4,96,0.04,,---,0.12,VWS V13.01,2013-01-08 19:18:00,
2013-01-08 13:23:00,48.2,47.1,29.38,ENE,67,0.0,0.0,96,0.04,,---,0.12,VWS V13.01,2013-01-08 19:23:00,
2013-01-08 13:28:00,48.2,47.1,29.38,NE,34,0.0,0.0,96,0.04,,---,0.12,VWS V13.01,2013-01-08 19:28:00,
2013-01-08 13:33:00,48.2,47.1,29.38,NE,55,0.0,0.0,96,0.04,,---,0.12,VWS V13.01,2013-01-08 19:33:00,
2013-01-08 13:38:00,48.2,47.1,29.38,NE,43,2.7,5.4,96,0.04,,---,0.12,VWS V13.01,2013-01-08 19:38:00,
2013-01-08 13:43:00,48.2,47.1,29.38,ENE,66,0.0,0.0,96,0.04,,---,0.12,VWS V13.01,2013-01-08 19:43:00,
2013-01-08 13:48:00,48.2,47.1,29.38,NNE,22,0.0,0.0,96,0.04,,---,0.12,VWS V13.01,2013-01-08 19:48:00,
2013-01-08 13:53:00,48.2,47.1,29.38,NE,36,0.0,0.0,96,0.04,,---,0.12,VWS V13.01,2013-01-08 19:53:00,
2013-01-08 13:59:00,48.2,47.1,29.38,NE,42,2.2,2.2,96,0.00,,---,0.00,VWS V13.01,2013-01-08 19:59:00,
2013-01-08 14:04:00,48.4,47.3,29.38,NE,55,2.2,4.0,96,0.00,,---,0.12,VWS V13.01,2013-01-08 20:04:00,
2013-01-08 14:09:00,48.4,47.3,29.38,NE,48,0.0,2.2,96,0.00,,---,0.12,VWS V13.01,2013-01-08 20:09:00,
2013-01-08 14:14:00,48.4,47.3,29.38,North,10,3.1,3.1,96,0.04,,---,0.16,VWS V13.01,2013-01-08 20:14:00,
2013-01-08 14:19:00,48.6,47.5,29.38,NE,45,0.0,0.0,96,0.04,,---,0.16,VWS V13.01,2013-01-08 20:19:00,
2013-01-08 14:24:00,48.6,47.5,29.38,North,8,0.0,3.6,96,0.04,,---,0.16,VWS V13.01,2013-01-08 20:24:00,
2013-01-08 14:29:00,48.6,47.5,29.38,NNW,333,0.0,2.2,96,0.04,,---,0.16,VWS V13.01,2013-01-08 20:29:00,
2013-01-08 14:34:00,48.7,47.7,29.38,North,0,0.0,0.0,96,0.04,,---,0.16,VWS V13.01,2013-01-08 20:34:00,
2013-01-08 14:39:00,48.7,47.7,29.35,North,5,0.0,3.1,96,0.04,,---,0.16,VWS V13.01,2013-01-08 20:39:00,
2013-01-08 14:44:00,48.7,47.7,29.35,NNE,20,0.0,0.0,96,0.04,,---,0.16,VWS V13.01,2013-01-08 20:44:00,
2013-01-08 14:49:00,48.7,47.7,29.35,NNE,29,3.1,3.6,96,0.04,,---,0.16,VWS V13.01,2013-01-08 20:49:00,
2013-01-08 14:54:00,48.7,47.7,29.38,North,353,3.6,4.0,96,0.04,,---,0.16,VWS V13.01,2013-01-08 20:54:00,
2013-01-08 14:59:00,48.7,47.7,29.38,North,6,4.9,4.9,96,0.04,,---,0.16,VWS V13.01,2013-01-08 20:59:00,
2013-01-08 15:04:00,48.7,47.7,29.38,NNE,16,0.0,0.0,96,0.04,,---,0.16,VWS V13.01,2013-01-08 21:04:00,
2013-01-08 15:09:00,48.7,47.7,29.38,North,1,2.7,2.7,96,0.08,,---,0.20,VWS V13.01,2013-01-08 21:09:00,
2013-01-08 15:14:00,48.7,47.7,29.38,North,2,2.7,5.8,96,0.04,,---,0.20,VWS V13.01,2013-01-08 21:14:00,
2013-01-08 15:19:00,48.7,47.7,29.38,NNE,23,0.0,3.1,96,0.08,,---,0.24,VWS V13.01,2013-01-08 21:19:00,
2013-01-08 15:24:00,48.7,47.7,29.38,NE,38,3.1,3.6,96,0.08,,---,0.24,VWS V13.01,2013-01-08 21:24:00,
2013-01-08 15:29:00,48.6,47.5,29.38,North,11,4.0,4.0,96,0.12,,---,0.28,VWS V13.01,2013-01-08 21:29:00,
2013-01-08 15:34:00,48.6,47.5,29.38,NNW,348,2.7,3.1,96,0.12,,---,0.28,VWS V13.01,2013-01-08 21:34:00,
2013-01-08 15:39:00,48.4,47.3,29.38,North,1,4.0,4.0,96,0.12,,---,0.28,VWS V13.01,2013-01-08 21:39:00,
2013-01-08 15:44:00,48.6,47.5,29.38,NNE,25,3.1,3.1,96,0.16,,---,0.31,VWS V13.01,2013-01-08 21:44:00,
2013-01-08 15:49:00,48.6,47.5,29.38,NE,39,3.1,3.6,96,0.16,,---,0.31,VWS V13.01,2013-01-08 21:49:00,
2013-01-08 15:54:00,48.6,47.5,29.38,North,357,3.6,3.6,96,0.16,,---,0.31,VWS V13.01,2013-01-08 21:54:00,
2013-01-08 15:59:00,48.6,47.5,29.38,North,3,3.1,3.1,96,0.16,,---,0.31,VWS V13.01,2013-01-08 21:59:00,
2013-01-08 16:04:00,48.6,47.5,29.38,North,10,5.4,5.4,96,0.16,,---,0.31,VWS V13.01,2013-01-08 22:04:00,
2013-01-08 16:09:00,48.4,47.3,29.38,NE,35,5.4,5.4,96,0.12,,---,0.31,VWS V13.01,2013-01-08 22:09:00,
2013-01-08 16:14:00,48.4,47.3,29.38,NNE,26,4.0,5.4,96,0.12,,---,0.31,VWS V13.01,2013-01-08 22:14:00,
2013-01-08 16:19:00,48.4,47.3,29.38,NNE,15,2.7,2.7,96,0.08,,---,0.31,VWS V13.01,2013-01-08 22:19:00,
2013-01-08 16:24:00,48.4,47.3,29.38,North,3,3.1,5.8,96,0.08,,---,0.31,VWS V13.01,2013-01-08 22:24:00,
2013-01-08 16:29:00,48.4,47.3,29.38,NNW,344,7.6,7.6,96,0.08,,---,0.31,VWS V13.01,2013-01-08 22:29:00,
2013-01-08 16:34:00,48.4,47.3,29.38,NNW,346,6.3,6.3,96,0.04,,---,0.31,VWS V13.01,2013-01-08 22:34:00,
2013-01-08 16:39:00,48.2,47.1,29.38,NNE,19,3.6,6.3,96,0.04,,---,0.31,VWS V13.01,2013-01-08 22:39:00,
2013-01-08 16:44:00,48.2,47.1,29.38,North,353,5.4,5.8,96,0.00,,---,0.31,VWS V13.01,2013-01-08 22:44:00,
2013-01-08 16:49:00,48.0,47.2,29.38,North,9,4.0,5.4,97,0.00,,---,0.31,VWS V13.01,2013-01-08 22:49:00,
2013-01-08 16:54:00,48.0,47.2,29.38,NNE,15,0.0,0.0,97,0.00,,---,0.31,VWS V13.01,2013-01-08 22:54:00,
2013-01-08 16:59:00,48.0,47.2,29.38,North,357,5.8,6.3,97,0.00,,---,0.31,VWS V13.01,2013-01-08 22:59:00,
2013-01-08 17:04:00,48.0,47.2,29.38,North,0,3.6,3.6,97,0.00,,---,0.31,VWS V13.01,2013-01-08 23:04:00,
2013-01-08 17:09:00,48.0,47.2,29.38,North,353,2.7,2.7,97,0.00,,---,0.31,VWS V13.01,2013-01-08 23:09:00,
2013-01-08 17:14:00,48.0,47.2,29.38,North,353,2.7,2.7,97,0.00,,---,0.31,VWS V13.01,2013-01-08 23:14:00,
2013-01-08 17:19:00,47.8,47.0,29.38,North,353,2.7,2.7,97,0.00,,---,0.31,VWS V13.01,2013-01-08 23:19:00,
2013-01-08 17:24:00,47.8,47.0,29.38,North,3,4.9,4.9,97,0.00,,---,0.31,VWS V13.01,2013-01-08 23:24:00,
2013-01-08 17:29:00,47.8,47.0,29.38,North,3,4.9,4.9,97,0.00,,---,0.31,VWS V13.01,2013-01-08 23:29:00,
2013-01-08 17:34:00,47.8,47.0,29.38,North,3,4.9,4.9,97,0.00,,---,0.31,VWS V13.01,2013-01-08 23:34:00,
2013-01-08 17:39:00,47.8,47.0,29.38,North,3,4.9,4.9,97,0.00,,---,0.31,VWS V13.01,2013-01-08 23:39:00,
2013-01-08 17:44:00,47.8,47.0,29.38,NNW,338,4.0,4.0,97,0.00,,---,0.31,VWS V13.01,2013-01-08 23:44:00,
2013-01-08 17:49:00,47.7,46.8,29.38,NE,35,3.1,3.1,97,0.00,,---,0.31,VWS V13.01,2013-01-08 23:49:00,
2013-01-08 17:54:00,47.7,46.8,29.41,NE,35,3.1,3.1,97,0.00,,---,0.31,VWS V13.01,2013-01-08 23:54:00,
2013-01-08 17:59:00,47.7,46.8,29.41,NE,35,3.1,3.1,97,0.00,,---,0.31,VWS V13.01,2013-01-08 23:59:00,
2013-01-08 18:04:00,47.7,46.8,29.41,NE,35,3.1,3.1,97,0.00,,---,0.31,VWS V13.01,2013-01-09 00:04:00,
2013-01-08 18:09:00,47.5,46.7,29.38,NE,35,3.1,3.1,97,0.00,,---,0.31,VWS V13.01,2013-01-09 00:09:00,
2013-01-08 18:14:00,47.5,46.7,29.38,NNE,19,7.6,7.6,97,0.00,,---,0.31,VWS V13.01,2013-01-09 00:14:00,
2013-01-08 18:19:00,47.5,46.7,29.38,NNE,30,5.4,5.4,97,0.00,,---,0.31,VWS V13.01,2013-01-09 00:19:00,
2013-01-08 18:24:00,47.5,46.7,29.41,NNE,30,5.4,5.4,97,0.00,,---,0.31,VWS V13.01,2013-01-09 00:24:00,
2013-01-08 18:29:00,47.5,46.7,29.41,NNE,12,5.8,5.8,97,0.00,,---,0.31,VWS V13.01,2013-01-09 00:29:00,
2013-01-08 18:34:00,47.5,46.7,29.41,NW,324,5.8,5.8,97,0.00,,---,0.31,VWS V13.01,2013-01-09 00:34:00,
2013-01-08 18:39:00,47.5,46.7,29.41,NNW,339,6.3,7.2,97,0.04,,---,0.35,VWS V13.01,2013-01-09 00:39:00,
2013-01-08 18:44:00,47.5,46.7,29.41,NNE,14,6.3,8.1,97,0.04,,---,0.35,VWS V13.01,2013-01-09 00:44:00,
2013-01-08 18:49:00,47.3,46.8,29.41,NNW,337,5.4,6.7,98,0.04,,---,0.35,VWS V13.01,2013-01-09 00:49:00,
2013-01-08 18:54:00,47.5,47.0,29.41,NNE,22,4.0,5.4,98,0.04,,---,0.35,VWS V13.01,2013-01-09 00:54:00,
2013-01-08 18:59:00,47.5,47.0,29.41,NE,34,4.9,5.8,98,0.04,,---,0.35,VWS V13.01,2013-01-09 00:59:00,
2013-01-08 19:04:00,47.5,47.0,29.41,North,7,3.6,4.0,98,0.04,,---,0.35,VWS V13.01,2013-01-09 01:04:00,
2013-01-08 19:09:00,47.5,47.0,29.41,North,357,5.8,8.1,98,0.04,,---,0.35,VWS V13.01,2013-01-09 01:09:00,
2013-01-08 19:14:00,47.5,47.0,29.41,North,0,4.9,5.8,98,0.04,,---,0.35,VWS V13.01,2013-01-09 01:14:00,
2013-01-08 19:19:00,47.7,47.1,29.41,North,357,2.7,3.6,98,0.04,,---,0.35,VWS V13.01,2013-01-09 01:19:00,
2013-01-08 19:24:00,47.7,47.1,29.41,North,357,5.4,5.4,98,0.04,,---,0.35,VWS V13.01,2013-01-09 01:24:00,
2013-01-08 19:29:00,47.7,47.1,29.41,NE,43,4.0,4.0,98,0.04,,---,0.35,VWS V13.01,2013-01-09 01:29:00,
2013-01-08 19:34:00,47.7,47.1,29.41,NE,36,2.7,2.7,98,0.04,,---,0.35,VWS V13.01,2013-01-09 01:34:00,
2013-01-08 19:39:00,47.8,47.3,29.41,NNE,19,4.0,7.6,98,0.00,,---,0.35,VWS V13.01,2013-01-09 01:39:00,
2013-01-08 19:44:00,47.8,47.3,29.41,North,5,2.7,2.7,98,0.00,,---,0.35,VWS V13.01,2013-01-09 01:44:00,
2013-01-08 19:49:00,48.0,47.5,29.41,NNE,33,2.7,2.7,98,0.04,,---,0.39,VWS V13.01,2013-01-09 01:49:00,
2013-01-08 19:54:00,48.0,47.5,29.38,North,8,4.0,4.0,98,0.04,,---,0.39,VWS V13.01,2013-01-09 01:54:00,
2013-01-08 19:59:00,48.2,47.7,29.38,NNE,12,3.6,3.6,98,0.04,,---,0.39,VWS V13.01,2013-01-09 01:59:00,
2013-01-08 20:04:00,48.2,47.7,29.38,NNW,344,4.0,4.0,98,0.04,,---,0.39,VWS V13.01,2013-01-09 02:04:00,
2013-01-08 20:09:00,48.4,47.8,29.38,NNW,348,5.8,6.3,98,0.04,,---,0.39,VWS V13.01,2013-01-09 02:09:00,
2013-01-08 20:14:00,48.4,47.8,29.38,NNE,19,6.3,6.3,98,0.04,,---,0.39,VWS V13.01,2013-01-09 02:14:00,
2013-01-08 20:19:00,48.6,48.0,29.38,NNE,20,5.4,5.4,98,0.04,,---,0.39,VWS V13.01,2013-01-09 02:19:00,
2013-01-08 20:24:00,48.6,48.0,29.41,NW,320,0.0,0.0,98,0.08,,---,0.43,VWS V13.01,2013-01-09 02:24:00,
2013-01-08 20:29:00,48.7,48.2,29.41,NW,326,2.2,2.2,98,0.08,,---,0.43,VWS V13.01,2013-01-09 02:29:00,
2013-01-08 20:34:00,48.7,48.2,29.41,North,4,3.6,4.9,98,0.08,,---,0.43,VWS V13.01,2013-01-09 02:34:00,
2013-01-08 20:39:00,48.7,48.2,29.41,North,353,3.6,3.6,98,0.12,,---,0.47,VWS V13.01,2013-01-09 02:39:00,
2013-01-08 20:44:00,48.9,48.4,29.41,North,350,4.9,4.9,98,0.12,,---,0.47,VWS V13.01,2013-01-09 02:44:00,
2013-01-08 20:49:00,48.9,48.4,29.41,North,1,3.6,4.0,98,0.12,,---,0.47,VWS V13.01,2013-01-09 02:49:00,
2013-01-08 20:54:00,48.7,48.2,29.44,NNW,346,2.7,2.7,98,0.08,,---,0.47,VWS V13.01,2013-01-09 02:54:00,
2013-01-08 20:59:00,48.7,48.2,29.44,North,5,5.8,5.8,98,0.08,,---,0.47,VWS V13.01,2013-01-09 02:59:00,
2013-01-08 21:04:00,48.7,48.2,29.44,NE,45,5.4,5.8,98,0.08,,---,0.47,VWS V13.01,2013-01-09 03:04:00,
2013-01-08 21:09:00,48.7,48.2,29.44,NW,319,4.0,4.9,98,0.08,,---,0.47,VWS V13.01,2013-01-09 03:09:00,
2013-01-08 21:14:00,48.9,48.4,29.44,NNW,328,2.2,2.2,98,0.12,,---,0.51,VWS V13.01,2013-01-09 03:14:00,
2013-01-08 21:19:00,48.9,48.4,29.44,North,0,2.7,3.1,98,0.22,,---,1.10,VWS V13.01,2013-01-09 03:19:00,
2013-01-08 21:24:00,48.9,48.4,29.47,NNE,13,5.8,5.8,98,0.12,,---,0.64,VWS V13.01,2013-01-09 03:24:00,
2013-01-08 21:29:00,48.7,48.2,29.47,North,5,8.1,8.1,98,0.12,,---,0.64,VWS V13.01,2013-01-09 03:29:00,
2013-01-08 21:34:00,48.7,48.2,29.47,NNW,335,5.8,5.8,98,0.12,,---,0.64,VWS V13.01,2013-01-09 03:34:00,
2013-01-08 21:39:00,48.7,48.2,29.47,North,353,5.8,6.3,98,0.12,,---,0.64,VWS V13.01,2013-01-09 03:39:00,
2013-01-08 21:44:00,48.7,48.2,29.47,North,1,0.0,3.6,98,0.12,,---,0.68,VWS V13.01,2013-01-09 03:44:00,
2013-01-08 21:49:00,48.7,48.2,29.47,North,0,7.6,7.6,98,0.12,,---,0.68,VWS V13.01,2013-01-09 03:49:00,
2013-01-08 21:54:00,48.7,48.2,29.47,North,7,3.1,5.8,98,0.12,,---,0.68,VWS V13.01,2013-01-09 03:54:00,
2013-01-08 21:59:00,48.7,48.2,29.47,North,7,5.8,5.8,98,0.16,,---,0.72,VWS V13.01,2013-01-09 03:59:00,
2013-01-08 22:04:00,48.7,48.2,29.47,NNE,30,6.3,6.3,98,0.16,,---,0.72,VWS V13.01,2013-01-09 04:04:00,
2013-01-08 22:09:00,48.7,48.2,29.47,North,0,3.6,3.6,98,0.16,,---,0.72,VWS V13.01,2013-01-09 04:09:00,
2013-01-08 22:14:00,48.7,48.2,29.47,NNW,343,0.0,0.0,98,0.12,,---,0.72,VWS V13.01,2013-01-09 04:14:00,
2013-01-08 22:19:00,48.9,48.4,29.47,NNW,343,0.0,0.0,98,0.12,,---,0.72,VWS V13.01,2013-01-09 04:19:00,
2013-01-08 22:24:00,48.9,48.4,29.47,North,7,5.4,5.4,98,0.12,,---,0.76,VWS V13.01,2013-01-09 04:24:00,
2013-01-08 22:29:00,48.9,48.4,29.47,North,7,5.4,5.4,98,0.12,,---,0.76,VWS V13.01,2013-01-09 04:29:00,
2013-01-08 22:34:00,48.9,48.4,29.47,North,6,7.2,7.2,98,0.16,,---,0.80,VWS V13.01,2013-01-09 04:34:00,
2013-01-08 22:39:00,48.9,48.4,29.47,North,9,2.7,2.7,98,0.16,,---,0.80,VWS V13.01,2013-01-09 04:39:00,
2013-01-08 22:44:00,48.9,48.4,29.47,NNW,345,5.4,5.4,98,0.16,,---,0.80,VWS V13.01,2013-01-09 04:44:00,
2013-01-08 22:49:00,48.9,48.4,29.47,NNW,332,3.6,3.6,98,0.12,,---,0.80,VWS V13.01,2013-01-09 04:49:00,
2013-01-08 22:54:00,49.1,48.6,29.47,NNW,332,3.6,3.6,98,0.12,,---,0.80,VWS V13.01,2013-01-09 04:54:00,
2013-01-08 22:59:00,49.1,48.6,29.47,NW,316,6.3,6.3,98,0.16,,---,0.88,VWS V13.01,2013-01-09 04:59:00,
2013-01-08 23:00:00,49.1,48.6,29.47,NW,316,6.3,6.3,98,0.16,,---,0.88,VWS V13.01,2013-01-09 05:00:00,
2013-01-08 23:01:00,49.1,48.6,29.47,NW,316,6.3,6.3,98,0.16,,---,0.88,VWS V13.01,2013-01-09 05:01:00,
2013-01-08 23:03:00,49.1,48.6,29.47,WNW,301,0.0,0.0,98,0.16,,---,0.88,VWS V13.01,2013-01-09 05:03:00,
2013-01-08 23:08:00,49.1,48.6,29.47,NW,315,2.7,2.7,98,0.16,,---,0.88,VWS V13.01,2013-01-09 05:08:00,
2013-01-08 23:13:00,49.1,48.6,29.47,NW,311,3.1,3.1,98,0.16,,---,0.88,VWS V13.01,2013-01-09 05:13:00,
2013-01-08 23:18:00,49.1,48.6,29.47,NW,322,3.1,3.1,98,0.16,,---,0.88,VWS V13.01,2013-01-09 05:18:00,
2013-01-08 23:23:00,49.1,48.6,29.50,NW,311,4.9,4.9,98,0.16,,---,0.91,VWS V13.01,2013-01-09 05:23:00,
2013-01-08 23:28:00,49.1,48.6,29.50,NW,312,3.1,3.1,98,0.16,,---,0.91,VWS V13.01,2013-01-09 05:28:00,
2013-01-08 23:33:00,49.3,48.7,29.50,NNW,340,2.7,2.7,98,0.12,,---,0.91,VWS V13.01,2013-01-09 05:33:00,
2013-01-08 23:38:00,49.3,48.7,29.50,NW,321,5.4,5.4,98,0.12,,---,0.91,VWS V13.01,2013-01-09 05:38:00,
2013-01-08 23:43:00,49.3,48.7,29.50,North,353,3.6,3.6,98,0.12,,---,0.91,VWS V13.01,2013-01-09 05:43:00,
2013-01-08 23:48:00,49.3,48.7,29.50,NW,325,4.9,4.9,98,0.16,,---,0.95,VWS V13.01,2013-01-09 05:48:00,
2013-01-08 23:53:00,49.3,48.7,29.50,NNW,336,5.8,5.8,98,0.16,,---,0.95,VWS V13.01,2013-01-09 05:53:00,
2013-01-08 23:58:00,49.3,48.7,29.50,North,357,5.8,5.8,98,0.08,,---,0.95,VWS V13.01,2013-01-09 05:58:00,